createdAt,value
2019-05-02T00:01:30.105Z,14.21
2019-05-02T00:03:58.415Z,14.19
2019-05-02T00:06:27.692Z,14.17
2019-05-02T00:08:59.108Z,14.17
2019-05-02T00:11:29.406Z,14.13
2019-05-02T00:13:59.247Z,14.12
2019-05-02T00:16:29.341Z,14.11
2019-05-02T00:18:58.186Z,14.09
2019-05-02T00:21:26.360Z,14.04
2019-05-02T00:23:54.447Z,14.02
2019-05-02T00:26:24.579Z,13.97
2019-05-02T00:28:52.564Z,13.93
2019-05-02T00:31:21.316Z,13.89
2019-05-02T00:33:49.521Z,13.88
2019-05-02T00:36:17.627Z,13.86
2019-05-02T00:38:45.733Z,13.86
2019-05-02T00:41:13.954Z,13.85
2019-05-02T00:43:42.228Z,13.84
2019-05-02T00:46:10.559Z,13.82
2019-05-02T00:48:44.185Z,13.81
2019-05-02T00:51:12.239Z,13.80
2019-05-02T00:53:44.398Z,13.76
2019-05-02T00:56:10.801Z,13.71
2019-05-02T00:58:39.014Z,13.68
2019-05-02T01:01:29.450Z,13.63
2019-05-02T01:04:00.573Z,13.64
2019-05-02T01:06:28.933Z,13.63
2019-05-02T01:08:57.015Z,13.60
2019-05-02T01:11:28.234Z,13.58
2019-05-02T01:13:57.592Z,13.55
2019-05-02T01:16:25.862Z,13.54
2019-05-02T01:18:54.310Z,13.52
2019-05-02T01:21:22.779Z,13.49
2019-05-02T01:23:51.499Z,13.48
2019-05-02T01:26:24.174Z,13.44
2019-05-02T01:29:00.166Z,13.39
2019-05-02T01:31:44.697Z,13.37
2019-05-02T01:34:35.391Z,13.34
2019-05-02T01:37:27.739Z,13.32
2019-05-02T01:39:55.851Z,13.29
2019-05-02T01:42:23.908Z,13.25
2019-05-02T01:44:51.969Z,13.23
2019-05-02T01:47:20.055Z,13.20
2019-05-02T01:49:52.025Z,13.18
2019-05-02T01:52:23.569Z,13.14
2019-05-02T01:54:49.371Z,13.13
2019-05-02T01:57:17.416Z,13.10
2019-05-02T01:59:45.474Z,13.08
2019-05-02T02:02:13.633Z,13.03
2019-05-02T02:04:41.832Z,13.04
2019-05-02T02:07:09.889Z,13.04
2019-05-02T02:09:38.845Z,13.01
2019-05-02T02:12:09.719Z,12.96
2019-05-02T02:14:38.254Z,12.95
2019-05-02T02:17:09.977Z,12.94
2019-05-02T02:19:42.608Z,12.92
2019-05-02T02:22:29.089Z,12.92
2019-05-02T02:25:15.810Z,12.89
2019-05-02T02:27:45.551Z,12.83
2019-05-02T02:30:17.684Z,12.83
2019-05-02T02:32:45.299Z,12.81
2019-05-02T02:35:13.419Z,12.77
2019-05-02T02:37:52.121Z,12.75
2019-05-02T02:40:11.799Z,12.75
2019-05-02T02:42:39.992Z,12.70
2019-05-02T02:45:20.446Z,12.67
2019-05-02T02:47:52.970Z,12.63
2019-05-02T02:50:18.496Z,12.55
2019-05-02T02:52:47.138Z,12.51
2019-05-02T02:55:16.198Z,12.47
2019-05-02T02:57:45.774Z,12.42
2019-05-02T03:00:14.330Z,12.35
2019-05-02T03:02:47.574Z,12.30
2019-05-02T03:05:18.997Z,12.25
2019-05-02T03:07:42.511Z,12.18
2019-05-02T03:10:10.741Z,12.15
2019-05-02T03:13:04.613Z,12.13
2019-05-02T03:15:36.320Z,12.12
2019-05-02T03:18:04.427Z,12.10
2019-05-02T03:20:39.546Z,12.07
2019-05-02T03:23:03.140Z,12.06
2019-05-02T03:25:49.721Z,12.02
2019-05-02T03:28:02.308Z,11.97
2019-05-02T03:30:36.410Z,11.93
2019-05-02T03:33:10.399Z,11.86
2019-05-02T03:35:43.329Z,11.78
2019-05-02T03:38:02.960Z,11.72
2019-05-02T03:40:32.243Z,11.65
2019-05-02T03:43:01.185Z,11.55
2019-05-02T03:45:32.329Z,11.48
2019-05-02T03:48:01.874Z,11.47
2019-05-02T03:50:32.779Z,11.44
2019-05-02T03:53:00.351Z,11.40
2019-05-02T03:55:30.896Z,11.39
2019-05-02T03:57:58.578Z,11.36
2019-05-02T04:00:28.113Z,11.37
2019-05-02T04:03:00.505Z,11.40
2019-05-02T04:05:26.505Z,11.38
2019-05-02T04:07:54.806Z,11.42
2019-05-02T04:11:23.224Z,11.44
2019-05-02T04:13:55.493Z,11.41
2019-05-02T04:16:25.986Z,11.40
2019-05-02T04:18:58.388Z,11.39
2019-05-02T04:21:26.820Z,11.39
2019-05-02T04:24:06.638Z,11.41
2019-05-02T04:26:27.437Z,11.43
2019-05-02T04:28:57.281Z,11.46
2019-05-02T04:31:31.762Z,11.45
2019-05-02T04:33:55.632Z,11.42
2019-05-02T04:36:23.681Z,11.39
2019-05-02T04:38:52.716Z,11.39
2019-05-02T04:41:28.562Z,11.41
2019-05-02T04:43:57.611Z,11.44
2019-05-02T04:46:26.998Z,11.46
2019-05-02T04:48:52.961Z,11.44
2019-05-02T04:51:21.272Z,11.45
2019-05-02T04:53:50.125Z,11.47
2019-05-02T04:56:19.839Z,11.49
2019-05-02T04:58:49.391Z,11.51
2019-05-02T05:01:18.005Z,11.53
2019-05-02T05:03:49.143Z,11.55
2019-05-02T05:06:18.926Z,11.57
2019-05-02T05:08:48.266Z,11.61
2019-05-02T05:11:21.367Z,11.66
2019-05-02T05:13:47.928Z,11.69
2019-05-02T05:16:18.490Z,11.71
2019-05-02T05:18:49.339Z,11.75
2019-05-02T05:21:18.029Z,11.80
2019-05-02T05:24:07.738Z,11.81
2019-05-02T05:26:41.001Z,11.87
2019-05-02T05:29:08.304Z,11.92
2019-05-02T05:31:38.234Z,11.99
2019-05-02T05:34:09.845Z,12.03
2019-05-02T05:36:38.074Z,12.09
2019-05-02T05:39:08.513Z,12.13
2019-05-02T05:41:37.908Z,12.14
2019-05-02T05:44:07.800Z,12.19
2019-05-02T05:46:38.688Z,12.25
2019-05-02T05:49:12.526Z,12.32
2019-05-02T05:51:37.506Z,12.37
2019-05-02T05:54:07.604Z,12.44
2019-05-02T05:56:39.667Z,12.50
2019-05-02T05:59:07.854Z,12.57
2019-05-02T06:01:38.444Z,12.65
2019-05-02T06:04:07.965Z,12.71
2019-05-02T06:06:37.760Z,12.82
2019-05-02T06:09:07.704Z,12.89
2019-05-02T06:11:35.769Z,13.00
2019-05-02T06:14:04.430Z,13.12
2019-05-02T06:16:35.087Z,13.23
2019-05-02T06:19:02.857Z,13.35
2019-05-02T06:21:31.081Z,13.48
2019-05-02T06:23:59.224Z,13.63
2019-05-02T06:26:27.251Z,13.76
2019-05-02T06:28:55.416Z,13.89
2019-05-02T06:31:23.418Z,14.03
2019-05-02T06:33:51.522Z,14.15
2019-05-02T06:36:19.573Z,14.31
2019-05-02T06:38:52.261Z,14.42
2019-05-02T06:41:21.015Z,14.55
2019-05-02T06:43:48.349Z,14.71
2019-05-02T06:46:21.498Z,14.84
2019-05-02T06:48:48.171Z,14.96
2019-05-02T06:51:19.512Z,15.10
2019-05-02T06:53:47.003Z,15.27
2019-05-02T06:56:16.494Z,15.45
2019-05-02T06:58:44.548Z,15.65
2019-05-02T07:01:16.306Z,15.82
2019-05-02T07:03:46.233Z,16.05
2019-05-02T07:06:13.235Z,16.29
2019-05-02T07:08:41.645Z,16.51
2019-05-02T07:11:09.747Z,16.72
2019-05-02T07:13:42.031Z,16.92
2019-05-02T07:16:37.478Z,17.11
2019-05-02T07:19:02.361Z,17.30
2019-05-02T07:21:31.113Z,17.49
2019-05-02T07:23:59.318Z,17.65
2019-05-02T07:26:27.370Z,17.80
2019-05-02T07:28:55.474Z,17.97
2019-05-02T07:31:23.498Z,18.16
2019-05-02T07:33:51.586Z,18.37
2019-05-02T07:36:19.746Z,18.59
2019-05-02T07:38:48.836Z,18.81
2019-05-02T07:41:19.106Z,19.04
2019-05-02T07:43:47.287Z,19.27
2019-05-02T07:46:22.154Z,19.51
2019-05-02T07:48:54.697Z,19.77
2019-05-02T07:51:21.356Z,20.04
2019-05-02T07:53:50.412Z,20.30
2019-05-02T07:56:18.985Z,20.53
2019-05-02T07:58:48.132Z,20.79
2019-05-02T08:01:16.236Z,21.03
2019-05-02T08:03:44.468Z,21.28
2019-05-02T08:06:12.554Z,21.52
2019-05-02T08:08:40.892Z,21.76
2019-05-02T08:11:09.082Z,21.99
2019-05-02T08:13:37.113Z,22.26
2019-05-02T08:16:05.495Z,22.55
2019-05-02T08:18:33.608Z,22.83
2019-05-02T08:21:02.087Z,23.07
2019-05-02T08:23:30.446Z,23.30
2019-05-02T08:25:58.657Z,23.57
2019-05-02T08:28:37.785Z,23.85
2019-05-02T08:31:08.124Z,24.06
2019-05-02T08:33:36.167Z,24.28
2019-05-02T08:36:07.162Z,24.43
2019-05-02T08:38:35.412Z,24.53
2019-05-02T08:41:03.491Z,24.68
2019-05-02T08:43:31.704Z,24.86
2019-05-02T08:46:01.552Z,24.91
2019-05-02T08:48:29.597Z,24.98
2019-05-02T08:50:58.117Z,25.23
2019-05-02T08:53:26.165Z,25.42
2019-05-02T08:55:55.331Z,25.67
2019-05-02T08:58:23.403Z,25.91
2019-05-02T09:00:51.586Z,26.03
2019-05-02T09:03:19.666Z,26.06
2019-05-02T09:05:48.028Z,26.26
2019-05-02T09:08:16.596Z,26.46
2019-05-02T09:10:45.408Z,26.67
2019-05-02T09:13:17.964Z,26.90
2019-05-02T09:15:49.790Z,27.15
2019-05-02T09:18:13.791Z,27.38
2019-05-02T09:20:42.444Z,27.59
2019-05-02T09:23:12.409Z,27.80
2019-05-02T09:25:42.848Z,27.97
2019-05-02T09:28:12.465Z,28.16
2019-05-02T09:30:42.686Z,28.23
2019-05-02T09:33:11.857Z,28.24
2019-05-02T09:35:42.197Z,28.29
2019-05-02T09:38:26.930Z,28.30
2019-05-02T09:40:56.975Z,28.40
2019-05-02T09:43:29.324Z,28.54
2019-05-02T09:45:58.624Z,28.74
2019-05-02T09:48:27.023Z,28.95
2019-05-02T09:50:57.756Z,29.15
2019-05-02T09:53:25.655Z,29.24
2019-05-02T09:55:57.708Z,29.34
2019-05-02T09:58:24.167Z,29.41
2019-05-02T10:01:01.995Z,29.49
2019-05-02T10:03:31.906Z,29.65
2019-05-02T10:06:03.122Z,29.85
2019-05-02T10:08:32.268Z,30.03
2019-05-02T10:11:02.597Z,30.20
2019-05-02T10:13:31.944Z,30.32
2019-05-02T10:16:02.064Z,30.36
2019-05-02T10:18:32.806Z,30.43
2019-05-02T10:21:02.806Z,30.47
2019-05-02T10:23:32.102Z,30.56
2019-05-02T10:26:02.692Z,30.74
2019-05-02T10:28:32.463Z,30.65
2019-05-02T10:31:02.280Z,30.41
2019-05-02T10:33:33.710Z,30.31
2019-05-02T10:36:02.541Z,30.43
2019-05-02T10:38:32.611Z,30.51
2019-05-02T10:41:02.676Z,30.60
2019-05-02T10:43:32.924Z,30.62
2019-05-02T10:46:12.577Z,30.53
2019-05-02T10:48:46.646Z,30.50
2019-05-02T10:51:34.793Z,30.55
2019-05-02T10:54:06.384Z,30.68
2019-05-02T10:56:35.951Z,30.70
2019-05-02T10:59:04.816Z,30.75
2019-05-02T11:01:47.681Z,30.88
2019-05-02T11:04:16.538Z,31.07
2019-05-02T11:06:46.272Z,31.24
2019-05-02T11:09:16.802Z,31.37
2019-05-02T11:11:45.851Z,31.56
2019-05-02T11:14:26.598Z,31.74
2019-05-02T11:17:13.935Z,31.97
2019-05-02T11:19:56.554Z,32.15
2019-05-02T11:22:24.926Z,32.30
2019-05-02T11:24:52.964Z,32.44
2019-05-02T11:27:22.118Z,32.54
2019-05-02T11:29:52.525Z,32.70
2019-05-02T11:32:22.110Z,32.91
2019-05-02T11:34:52.282Z,33.09
2019-05-02T11:37:20.333Z,33.26
2019-05-02T11:39:52.323Z,33.35
2019-05-02T11:42:23.248Z,33.50
2019-05-02T11:44:49.457Z,33.63
2019-05-02T11:47:21.827Z,33.76
2019-05-02T11:49:52.152Z,33.86
2019-05-02T11:52:19.290Z,33.76
2019-05-02T11:54:48.660Z,33.47
2019-05-02T11:57:21.259Z,33.32
2019-05-02T11:59:47.592Z,33.15
2019-05-02T12:02:41.622Z,32.94
2019-05-02T12:05:12.792Z,32.67
2019-05-02T12:07:41.798Z,32.30
2019-05-02T12:10:12.389Z,32.01
2019-05-02T12:12:40.287Z,31.69
2019-05-02T12:15:11.482Z,31.47
2019-05-02T12:17:41.886Z,31.25
2019-05-02T12:20:11.853Z,31.22
2019-05-02T12:22:41.940Z,31.19
2019-05-02T12:25:12.458Z,31.18
2019-05-02T12:27:42.483Z,31.12
2019-05-02T12:30:11.802Z,31.05
2019-05-02T12:32:39.974Z,30.95
2019-05-02T12:35:09.290Z,30.83
2019-05-02T12:37:37.471Z,30.63
2019-05-02T12:40:07.742Z,30.40
2019-05-02T12:42:36.906Z,30.16
2019-05-02T12:45:06.511Z,29.96
2019-05-02T12:47:34.761Z,29.76
2019-05-02T12:50:03.326Z,29.54
2019-05-02T12:52:32.098Z,29.33
2019-05-02T12:55:02.132Z,29.13
2019-05-02T12:57:32.102Z,28.97
2019-05-02T13:00:01.873Z,28.86
2019-05-02T13:02:56.137Z,28.75
2019-05-02T13:05:24.234Z,28.67
2019-05-02T13:07:55.274Z,28.62
2019-05-02T13:10:32.734Z,28.56
2019-05-02T13:13:02.822Z,28.51
2019-05-02T13:15:32.809Z,28.44
2019-05-02T13:18:03.004Z,28.36
2019-05-02T13:20:34.730Z,28.25
2019-05-02T13:23:35.432Z,28.13
2019-05-02T13:26:02.491Z,28.01
2019-05-02T13:28:32.445Z,27.81
2019-05-02T13:31:11.753Z,27.46
2019-05-02T13:33:47.197Z,26.99
2019-05-02T13:36:39.122Z,26.21
2019-05-02T13:39:13.110Z,25.80
2019-05-02T13:41:42.810Z,25.21
2019-05-02T13:44:13.092Z,24.50
2019-05-02T13:46:41.965Z,24.02
2019-05-02T13:49:12.776Z,23.65
2019-05-02T13:51:42.624Z,23.38
2019-05-02T13:54:12.573Z,23.16
2019-05-02T13:56:53.150Z,22.98
2019-05-02T13:59:22.997Z,22.75
2019-05-02T14:01:52.879Z,22.15
2019-05-02T14:04:23.258Z,21.72
2019-05-02T14:06:53.107Z,21.40
2019-05-02T14:09:39.794Z,21.11
2019-05-02T14:12:23.523Z,20.83
2019-05-02T14:14:54.105Z,20.49
2019-05-02T14:17:22.936Z,20.18
2019-05-02T14:20:01.197Z,19.91
2019-05-02T14:22:22.631Z,19.66
2019-05-02T14:24:51.935Z,19.36
2019-05-02T14:27:22.349Z,19.04
2019-05-02T14:29:52.498Z,18.76
2019-05-02T14:32:26.187Z,18.62
2019-05-02T14:35:13.383Z,18.42
2019-05-02T14:37:42.825Z,18.34
2019-05-02T14:40:24.835Z,18.27
2019-05-02T14:42:53.104Z,18.18
2019-05-02T14:45:30.820Z,17.99
2019-05-02T14:47:57.570Z,17.92
2019-05-02T14:50:26.396Z,17.91
2019-05-02T14:52:52.722Z,17.88
2019-05-02T14:55:23.959Z,17.87
2019-05-02T14:57:52.624Z,17.89
2019-05-02T15:00:25.586Z,17.87
2019-05-02T15:02:55.690Z,17.87
2019-05-02T15:05:29.493Z,17.86
2019-05-02T15:07:56.755Z,17.85
2019-05-02T15:10:24.974Z,17.83
2019-05-02T15:12:59.487Z,17.81
2019-05-02T15:15:23.244Z,17.82
2019-05-02T15:17:53.114Z,17.85
2019-05-02T15:20:22.395Z,17.85
2019-05-02T15:22:52.302Z,17.84
2019-05-02T15:25:21.745Z,17.82
2019-05-02T15:27:58.567Z,17.84
2019-05-02T15:30:23.992Z,17.85
2019-05-02T15:32:57.372Z,17.84
2019-05-02T15:36:01.920Z,17.81
2019-05-02T15:38:29.399Z,17.77
2019-05-02T15:40:59.123Z,17.74
2019-05-02T15:43:31.686Z,17.72
2019-05-02T15:45:59.630Z,17.71
2019-05-02T15:48:27.906Z,17.72
2019-05-02T15:51:00.207Z,17.71
2019-05-02T15:53:49.750Z,17.70
2019-05-02T15:56:20.301Z,17.69
2019-05-02T15:58:46.088Z,17.61
2019-05-02T16:01:32.184Z,17.58
2019-05-02T16:04:01.740Z,17.56
2019-05-02T16:06:33.657Z,17.55
2019-05-02T16:09:02.328Z,17.56
2019-05-02T16:11:32.685Z,17.55
2019-05-02T16:14:02.192Z,17.55
2019-05-02T16:16:32.056Z,17.56
2019-05-02T16:19:02.169Z,17.57
2019-05-02T16:21:42.687Z,17.55
2019-05-02T16:24:19.978Z,17.52
2019-05-02T16:26:49.643Z,17.52
2019-05-02T16:29:24.325Z,17.49
2019-05-02T16:31:59.768Z,17.49
2019-05-02T16:34:27.453Z,17.46
2019-05-02T16:37:13.476Z,17.44
2019-05-02T16:39:42.532Z,17.43
2019-05-02T16:42:12.434Z,17.41
2019-05-02T16:44:42.735Z,17.38
2019-05-02T16:47:10.876Z,17.35
2019-05-02T16:49:47.874Z,17.34
2019-05-02T16:52:16.185Z,17.30
2019-05-02T16:55:06.533Z,17.26
2019-05-02T16:57:35.284Z,17.21
2019-05-02T17:00:06.362Z,17.16
2019-05-02T17:02:43.599Z,17.14
2019-05-02T17:05:12.086Z,17.11
2019-05-02T17:07:54.121Z,17.09
2019-05-02T17:10:28.932Z,17.08
2019-05-02T17:13:00.272Z,17.07
2019-05-02T17:15:35.206Z,17.05
2019-05-02T17:18:12.984Z,17.03
2019-05-02T17:20:54.913Z,17.01
2019-05-02T17:23:19.578Z,16.99
2019-05-02T17:25:47.615Z,16.96
2019-05-02T17:28:16.045Z,16.93
2019-05-02T17:30:44.450Z,16.90
2019-05-02T17:33:16.304Z,16.87
2019-05-02T17:35:49.907Z,16.83
2019-05-02T17:38:18.975Z,16.80
2019-05-02T17:40:46.138Z,16.78
2019-05-02T17:43:15.928Z,16.74
2019-05-02T17:45:43.983Z,16.71
2019-05-02T17:48:16.569Z,16.69
2019-05-02T17:50:58.907Z,16.67
2019-05-02T17:53:24.551Z,16.64
2019-05-02T17:55:52.686Z,16.62
2019-05-02T17:58:21.267Z,16.60
2019-05-02T18:00:52.301Z,16.58
2019-05-02T18:03:24.058Z,16.56
2019-05-02T18:05:52.985Z,16.54
2019-05-02T18:08:21.863Z,16.50
2019-05-02T18:10:50.590Z,16.47
2019-05-02T18:13:20.223Z,16.46
2019-05-02T18:15:48.284Z,16.44
2019-05-02T18:18:17.309Z,16.42
2019-05-02T18:20:46.594Z,16.42
2019-05-02T18:23:18.759Z,16.40
2019-05-02T18:25:47.092Z,16.39
2019-05-02T18:28:22.237Z,16.38
2019-05-02T18:30:45.499Z,16.36
2019-05-02T18:33:13.721Z,16.33
2019-05-02T18:35:46.806Z,16.29
2019-05-02T18:38:16.029Z,16.28
2019-05-02T18:40:43.632Z,16.27
2019-05-02T18:43:11.734Z,16.24
2019-05-02T18:45:42.573Z,16.21
2019-05-02T18:48:12.705Z,16.19
2019-05-02T18:50:46.930Z,16.16
2019-05-02T18:53:13.766Z,16.13
2019-05-02T18:55:42.412Z,16.10
2019-05-02T18:58:12.792Z,16.06
2019-05-02T19:00:42.096Z,16.02
2019-05-02T19:03:13.225Z,16.01
2019-05-02T19:05:42.250Z,15.99
2019-05-02T19:08:12.032Z,15.96
2019-05-02T19:10:44.695Z,15.95
2019-05-02T19:13:12.859Z,15.92
2019-05-02T19:15:45.445Z,15.90
2019-05-02T19:18:18.023Z,15.87
2019-05-02T19:21:07.966Z,15.83
2019-05-02T19:23:37.530Z,15.80
2019-05-02T19:26:14.636Z,15.76
2019-05-02T19:28:56.192Z,15.75
2019-05-02T19:31:36.642Z,15.70
2019-05-02T19:34:04.847Z,15.61
2019-05-02T19:36:32.945Z,15.53
2019-05-02T19:39:06.345Z,15.49
2019-05-02T19:41:32.315Z,15.46
2019-05-02T19:44:02.325Z,15.43
2019-05-02T19:46:38.575Z,15.41
2019-05-02T19:49:02.148Z,15.39
2019-05-02T19:51:31.704Z,15.36
2019-05-02T19:54:03.227Z,15.34
2019-05-02T19:56:33.334Z,15.32
2019-05-02T19:59:00.000Z,15.29
2019-05-02T20:01:28.045Z,15.27
2019-05-02T20:03:56.809Z,15.24
2019-05-02T20:06:26.165Z,15.23
2019-05-02T20:08:59.335Z,15.20
2019-05-02T20:11:28.097Z,15.16
2019-05-02T20:13:54.625Z,15.12
2019-05-02T20:16:44.186Z,15.09
2019-05-02T20:19:08.027Z,15.06
2019-05-02T20:21:44.471Z,15.03
2019-05-02T20:24:17.368Z,15.01
2019-05-02T20:26:46.777Z,14.97
2019-05-02T20:29:12.587Z,14.94
2019-05-02T20:31:40.632Z,14.91
2019-05-02T20:34:08.713Z,14.90
2019-05-02T20:36:37.427Z,14.87
2019-05-02T20:39:08.151Z,14.85
2019-05-02T20:41:36.737Z,14.79
2019-05-02T20:44:05.166Z,14.71
2019-05-02T20:46:33.400Z,14.65
2019-05-02T20:49:02.107Z,14.64
2019-05-02T20:51:31.956Z,14.61
2019-05-02T20:54:01.920Z,14.60
2019-05-02T20:56:32.028Z,14.55
2019-05-02T20:59:01.975Z,14.53
2019-05-02T21:01:32.175Z,14.48
2019-05-02T21:04:02.910Z,14.45
2019-05-02T21:06:53.510Z,14.42
2019-05-02T21:09:42.403Z,14.39
2019-05-02T21:12:12.610Z,14.36
2019-05-02T21:14:41.615Z,14.35
2019-05-02T21:17:09.691Z,14.32
2019-05-02T21:19:38.192Z,14.28
2019-05-02T21:22:15.877Z,14.27
2019-05-02T21:24:45.049Z,14.25
2019-05-02T21:27:13.080Z,14.25
2019-05-02T21:29:42.574Z,14.21
2019-05-02T21:32:12.117Z,14.16
2019-05-02T21:34:42.476Z,14.14
2019-05-02T21:37:11.289Z,14.13
2019-05-02T21:39:39.359Z,14.13
2019-05-02T21:42:08.526Z,14.12
2019-05-02T21:44:36.621Z,14.11
2019-05-02T21:47:05.821Z,14.10
2019-05-02T21:49:49.877Z,14.11
2019-05-02T21:52:37.543Z,14.10
2019-05-02T21:55:16.220Z,14.06
2019-05-02T21:57:44.262Z,14.02
2019-05-02T22:00:38.755Z,13.99
2019-05-02T22:03:08.193Z,13.99
2019-05-02T22:05:36.365Z,13.96
2019-05-02T22:08:04.600Z,13.94
2019-05-02T22:10:33.044Z,13.91
2019-05-02T22:13:03.488Z,13.89
2019-05-02T22:15:32.508Z,13.87
2019-05-02T22:18:01.682Z,13.87
2019-05-02T22:20:32.041Z,13.87
2019-05-02T22:23:00.146Z,13.89
2019-05-02T22:25:28.234Z,13.89
2019-05-02T22:27:56.682Z,13.88
2019-05-02T22:30:24.781Z,13.87
2019-05-02T22:32:54.335Z,13.86
2019-05-02T22:35:22.537Z,13.84
2019-05-02T22:37:53.502Z,13.83
2019-05-02T22:40:23.422Z,13.81
2019-05-02T22:42:52.313Z,13.81
2019-05-02T22:45:21.808Z,13.81
2019-05-02T22:47:51.951Z,13.84
2019-05-02T22:50:21.919Z,13.84
2019-05-02T22:52:52.092Z,13.86
2019-05-02T22:55:19.984Z,13.87
2019-05-02T22:57:51.672Z,13.86
2019-05-02T23:00:19.495Z,13.87
2019-05-02T23:02:49.806Z,13.88
2019-05-02T23:05:17.844Z,13.89
2019-05-02T23:07:46.282Z,13.88
2019-05-02T23:10:14.422Z,13.87
2019-05-02T23:12:42.685Z,13.87
2019-05-02T23:15:12.541Z,13.85
2019-05-02T23:17:42.809Z,13.86
2019-05-02T23:20:12.772Z,13.87
2019-05-02T23:22:41.823Z,13.85
2019-05-02T23:25:40.314Z,13.86
2019-05-02T23:28:13.884Z,13.86
2019-05-02T23:30:43.665Z,13.86
2019-05-02T23:33:12.958Z,13.87
2019-05-02T23:35:43.054Z,13.88
2019-05-02T23:38:12.579Z,13.91
2019-05-02T23:40:42.092Z,13.93
2019-05-02T23:43:12.395Z,13.94
2019-05-02T23:45:42.188Z,13.95
2019-05-02T23:48:10.405Z,13.97
2019-05-02T23:50:40.055Z,13.97
2019-05-02T23:53:08.132Z,13.99
2019-05-02T23:55:37.328Z,13.99
2019-05-02T23:58:05.384Z,14.00
